createdAt,value
2022-08-17T00:02:26.601Z,4.47
2022-08-17T00:04:55.354Z,4.32
2022-08-17T00:07:22.691Z,4.70
2022-08-17T00:09:49.548Z,4.53
2022-08-17T00:12:42.176Z,4.45
2022-08-17T00:15:09.179Z,4.82
2022-08-17T00:17:37.842Z,4.47
2022-08-17T00:20:05.776Z,4.50
2022-08-17T00:22:36.552Z,4.57
2022-08-17T00:25:15.100Z,4.05
2022-08-17T00:27:42.091Z,4.05
2022-08-17T00:30:11.582Z,4.30
2022-08-17T00:33:15.285Z,4.43
2022-08-17T00:35:32.338Z,4.65
2022-08-17T00:37:59.166Z,3.97
2022-08-17T00:40:26.207Z,4.53
2022-08-17T00:42:53.463Z,4.13
2022-08-17T00:45:20.937Z,4.45
2022-08-17T00:47:48.366Z,4.47
2022-08-17T00:50:18.923Z,3.80
2022-08-17T00:52:56.350Z,4.03
2022-08-17T00:55:25.745Z,4.50
2022-08-17T00:57:59.117Z,3.95
2022-08-17T01:00:32.961Z,4.38
2022-08-17T01:03:11.851Z,3.83
2022-08-17T01:05:42.197Z,4.32
2022-08-17T01:08:13.262Z,4.93
2022-08-17T01:11:00.582Z,4.50
2022-08-17T01:13:38.197Z,4.50
2022-08-17T01:16:22.000Z,4.68
2022-08-17T01:18:53.592Z,5.15
2022-08-17T01:22:04.984Z,4.82
2022-08-17T01:24:34.065Z,4.55
2022-08-17T01:27:01.519Z,4.68
2022-08-17T01:29:30.881Z,4.75
2022-08-17T01:32:05.437Z,4.72
2022-08-17T01:34:42.831Z,4.60
2022-08-17T01:37:15.094Z,4.78
2022-08-17T01:43:52.476Z,4.50
2022-08-17T01:46:27.946Z,4.28
2022-08-17T01:48:56.227Z,4.20
2022-08-17T01:51:25.930Z,5.00
2022-08-17T01:53:57.646Z,5.40
2022-08-17T01:56:26.085Z,5.10
2022-08-17T01:58:53.098Z,4.95
2022-08-17T02:01:26.400Z,4.75
2022-08-17T02:03:59.766Z,4.57
2022-08-17T02:10:35.051Z,4.80
2022-08-17T02:13:04.239Z,4.38
2022-08-17T02:15:31.901Z,4.78
2022-08-17T02:17:58.685Z,4.95
2022-08-17T02:20:41.809Z,4.97
2022-08-17T02:23:11.894Z,4.88
2022-08-17T02:25:40.436Z,4.55
2022-08-17T02:28:07.221Z,5.07
2022-08-17T02:30:59.829Z,4.45
2022-08-17T02:33:22.162Z,4.60
2022-08-17T02:35:49.014Z,4.35
2022-08-17T02:38:17.342Z,4.10
2022-08-17T02:40:44.136Z,5.00
2022-08-17T02:43:13.658Z,5.10
2022-08-17T02:45:40.479Z,5.65
2022-08-17T02:48:07.781Z,5.30
2022-08-17T02:50:34.646Z,5.03
2022-08-17T02:53:04.562Z,4.50
2022-08-17T02:55:36.310Z,4.88
2022-08-17T02:58:03.965Z,5.80
2022-08-17T03:00:35.784Z,4.97
2022-08-17T03:03:07.912Z,4.85
2022-08-17T03:05:37.502Z,4.90
2022-08-17T03:08:06.324Z,5.40
2022-08-17T03:10:33.848Z,4.70
2022-08-17T03:13:01.533Z,4.75
2022-08-17T03:15:31.969Z,5.13
2022-08-17T03:18:00.805Z,5.10
2022-08-17T03:20:30.473Z,4.72
2022-08-17T03:23:02.744Z,5.10
2022-08-17T03:25:41.174Z,4.78
2022-08-17T03:28:12.045Z,4.68
2022-08-17T03:30:40.413Z,6.00
2022-08-17T03:33:10.094Z,5.70
2022-08-17T03:35:40.220Z,6.18
2022-08-17T03:38:11.611Z,6.07
2022-08-17T03:40:57.256Z,7.15
2022-08-17T03:43:32.144Z,6.45
2022-08-17T03:46:28.980Z,6.50
2022-08-17T03:49:25.211Z,6.88
2022-08-17T03:52:12.301Z,6.60
2022-08-17T03:54:58.914Z,6.85
2022-08-17T03:57:26.148Z,7.18
2022-08-17T03:59:54.353Z,7.03
2022-08-17T04:02:28.983Z,6.50
2022-08-17T04:04:55.883Z,5.82
2022-08-17T04:07:27.338Z,6.57
2022-08-17T04:09:54.909Z,7.40
2022-08-17T04:12:23.875Z,7.13
2022-08-17T04:14:51.676Z,6.50
2022-08-17T04:17:20.037Z,6.93
2022-08-17T04:19:46.968Z,6.28
2022-08-17T04:22:30.042Z,7.18
2022-08-17T04:24:58.851Z,7.00
2022-08-17T04:27:25.724Z,6.93
2022-08-17T04:29:55.641Z,7.13
2022-08-17T04:33:09.820Z,6.20
2022-08-17T04:35:09.938Z,6.35
2022-08-17T04:37:36.787Z,6.53
2022-08-17T04:40:27.192Z,7.25
2022-08-17T04:43:07.293Z,6.93
2022-08-17T04:45:34.441Z,6.05
2022-08-17T04:48:01.682Z,6.03
2022-08-17T04:50:28.519Z,6.28
2022-08-17T04:52:55.598Z,6.55
2022-08-17T04:55:22.663Z,6.18
2022-08-17T04:57:49.470Z,5.93
2022-08-17T05:00:16.304Z,6.00
2022-08-17T05:02:50.986Z,6.60
2022-08-17T05:05:31.641Z,6.22
2022-08-17T05:08:02.166Z,6.43
2022-08-17T05:10:32.982Z,6.03
2022-08-17T05:13:17.610Z,5.68
2022-08-17T05:15:47.712Z,5.13
2022-08-17T05:18:16.508Z,6.10
2022-08-17T05:20:45.062Z,5.70
2022-08-17T05:23:16.661Z,6.40
2022-08-17T05:25:47.986Z,6.20
2022-08-17T05:28:18.507Z,5.95
2022-08-17T05:30:49.355Z,5.95
2022-08-17T05:33:23.690Z,5.88
2022-08-17T05:35:54.681Z,6.18
2022-08-17T05:38:24.242Z,6.13
2022-08-17T05:40:52.062Z,6.28
2022-08-17T05:43:26.070Z,5.57
2022-08-17T05:46:25.184Z,6.32
2022-08-17T05:48:57.665Z,6.22
2022-08-17T05:52:09.720Z,6.00
2022-08-17T05:55:07.181Z,6.50
2022-08-17T05:58:04.895Z,6.25
2022-08-17T06:00:57.847Z,6.60
2022-08-17T06:03:37.220Z,6.38
2022-08-17T06:06:32.160Z,5.88
2022-08-17T06:09:40.942Z,6.32
2022-08-17T06:12:42.743Z,6.50
2022-08-17T06:15:55.358Z,6.07
2022-08-17T06:18:26.752Z,6.03
2022-08-17T06:21:02.057Z,5.85
2022-08-17T06:23:39.573Z,6.25
2022-08-17T06:26:14.810Z,6.38
2022-08-17T06:28:54.753Z,6.85
2022-08-17T06:31:28.996Z,6.43
2022-08-17T06:33:58.190Z,6.70
2022-08-17T06:37:09.027Z,6.13
2022-08-17T06:40:07.164Z,6.07
2022-08-17T06:43:27.474Z,5.40
2022-08-17T06:46:07.712Z,5.60
2022-08-17T06:48:46.758Z,5.72
2022-08-17T06:51:25.858Z,5.28
2022-08-17T06:54:05.480Z,5.43
2022-08-17T06:56:53.089Z,5.13
2022-08-17T06:59:53.210Z,4.65
2022-08-17T07:03:02.097Z,5.20
2022-08-17T07:05:45.566Z,4.57
2022-08-17T07:08:27.743Z,5.00
2022-08-17T07:11:03.002Z,4.40
2022-08-17T07:14:01.152Z,5.00
2022-08-17T07:16:42.462Z,4.13
2022-08-17T07:19:10.978Z,4.22
2022-08-17T07:21:54.875Z,4.50
2022-08-17T07:24:51.780Z,4.85
2022-08-17T07:27:21.662Z,3.90
2022-08-17T07:30:16.332Z,4.30
2022-08-17T07:33:00.344Z,4.57
2022-08-17T07:35:31.336Z,3.95
2022-08-17T07:38:27.645Z,4.43
2022-08-17T07:40:57.776Z,4.40
2022-08-17T07:43:41.275Z,3.90
2022-08-17T07:46:39.882Z,3.78
2022-08-17T07:49:09.659Z,3.95
2022-08-17T07:52:00.507Z,3.75
2022-08-17T07:54:48.237Z,3.63
2022-08-17T07:57:14.890Z,3.08
2022-08-17T07:59:59.968Z,3.28
2022-08-17T08:02:41.413Z,3.05
2022-08-17T08:05:49.216Z,3.67
2022-08-17T08:08:25.148Z,3.20
2022-08-17T08:11:17.853Z,3.60
2022-08-17T08:13:45.699Z,3.40
2022-08-17T08:16:29.630Z,4.03
2022-08-17T08:19:00.605Z,3.70
2022-08-17T08:21:47.095Z,3.47
2022-08-17T08:24:32.301Z,3.60
2022-08-17T08:27:41.604Z,3.08
2022-08-17T08:30:21.276Z,3.65
2022-08-17T08:33:20.107Z,3.47
2022-08-17T08:35:58.673Z,3.65
2022-08-17T08:38:43.076Z,4.55
2022-08-17T08:41:42.955Z,3.15
2022-08-17T08:45:00.951Z,2.60
2022-08-17T08:47:53.490Z,3.03
2022-08-17T08:50:37.666Z,3.30
2022-08-17T08:53:43.746Z,2.80
2022-08-17T08:59:33.102Z,2.72
2022-08-17T09:02:46.018Z,2.97
2022-08-17T09:05:44.574Z,3.10
2022-08-17T09:08:43.596Z,2.75
2022-08-17T09:12:02.283Z,2.95
2022-08-17T09:14:46.715Z,3.00
2022-08-17T09:17:46.060Z,2.38
2022-08-17T09:20:46.637Z,2.55
2022-08-17T09:23:32.655Z,2.13
2022-08-17T09:26:10.627Z,2.10
2022-08-17T09:28:42.572Z,2.45
2022-08-17T09:31:16.887Z,2.90
2022-08-17T09:33:49.035Z,3.00
2022-08-17T09:36:45.363Z,2.28
2022-08-17T09:39:39.184Z,2.08
2022-08-17T09:42:26.471Z,2.08
2022-08-17T09:45:42.541Z,2.08
2022-08-17T09:48:21.933Z,2.15
2022-08-17T09:51:07.074Z,1.77
2022-08-17T09:53:37.181Z,2.10
2022-08-17T09:56:34.590Z,2.33
2022-08-17T09:59:20.676Z,2.03
2022-08-17T10:02:29.772Z,1.67
2022-08-17T10:05:04.125Z,1.83
2022-08-17T10:07:55.964Z,2.30
2022-08-17T10:10:35.897Z,2.00
2022-08-17T10:13:47.208Z,2.10
2022-08-17T10:16:41.116Z,2.00
2022-08-17T10:19:28.373Z,2.03
2022-08-17T10:22:34.665Z,1.83
2022-08-17T10:25:37.582Z,2.03
2022-08-17T10:28:21.466Z,1.70
2022-08-17T10:31:10.413Z,2.72
2022-08-17T10:34:07.362Z,2.05
2022-08-17T10:37:08.712Z,2.33
2022-08-17T10:40:07.559Z,2.22
2022-08-17T10:42:47.003Z,1.85
2022-08-17T10:45:31.708Z,2.00
2022-08-17T10:48:07.953Z,2.08
2022-08-17T10:51:10.531Z,1.67
2022-08-17T10:53:40.613Z,1.70
2022-08-17T10:56:13.649Z,2.28
2022-08-17T10:58:54.840Z,2.15
2022-08-17T11:02:03.201Z,2.05
2022-08-17T11:05:00.911Z,2.17
2022-08-17T11:08:05.210Z,1.83
2022-08-17T11:11:10.029Z,1.97
2022-08-17T11:13:55.968Z,2.05
2022-08-17T11:17:04.175Z,2.25
2022-08-17T11:20:04.469Z,2.40
2022-08-17T11:22:49.916Z,2.08
2022-08-17T11:25:20.943Z,1.98
2022-08-17T11:27:53.761Z,1.90
2022-08-17T11:30:50.490Z,2.28
2022-08-17T11:33:29.561Z,2.80
2022-08-17T11:36:14.425Z,2.28
2022-08-17T11:39:05.638Z,2.17
2022-08-17T11:41:57.797Z,1.85
2022-08-17T11:44:57.027Z,1.95
2022-08-17T11:48:27.044Z,1.75
2022-08-17T11:51:33.461Z,1.85
2022-08-17T11:54:32.118Z,1.90
2022-08-17T11:57:02.321Z,1.70
2022-08-17T11:59:36.311Z,1.95
2022-08-17T12:02:34.630Z,2.20
2022-08-17T12:05:16.852Z,1.80
2022-08-17T12:07:51.898Z,2.00
2022-08-17T12:10:23.616Z,1.85
2022-08-17T12:12:53.505Z,1.42
2022-08-17T12:15:31.009Z,1.90
2022-08-17T12:17:58.399Z,1.85
2022-08-17T12:20:40.326Z,1.85
2022-08-17T12:23:28.401Z,1.63
2022-08-17T12:25:59.634Z,1.83
2022-08-17T12:28:34.386Z,1.35
2022-08-17T12:31:19.603Z,1.73
2022-08-17T12:33:49.756Z,1.73
2022-08-17T12:36:21.962Z,2.08
2022-08-17T12:39:13.878Z,1.67
2022-08-17T12:41:56.309Z,1.80
2022-08-17T12:44:36.332Z,1.50
2022-08-17T12:47:21.811Z,1.65
2022-08-17T12:49:53.052Z,1.20
2022-08-17T12:52:19.744Z,1.45
2022-08-17T12:55:01.834Z,1.70
2022-08-17T12:57:41.696Z,1.55
2022-08-17T13:00:17.453Z,1.75
2022-08-17T13:03:03.207Z,1.63
2022-08-17T13:05:43.549Z,1.75
2022-08-17T13:08:19.761Z,1.67
2022-08-17T13:11:03.467Z,1.58
2022-08-17T13:13:39.861Z,1.38
2022-08-17T13:16:20.452Z,1.88
2022-08-17T13:19:04.329Z,1.33
2022-08-17T13:21:33.181Z,1.58
2022-08-17T13:24:13.642Z,1.50
2022-08-17T13:27:00.802Z,1.20
2022-08-17T13:29:45.078Z,1.63
2022-08-17T13:32:44.148Z,1.35
2022-08-17T13:35:39.903Z,1.60
2022-08-17T13:38:15.070Z,1.25
2022-08-17T13:40:45.424Z,1.60
2022-08-17T13:43:12.436Z,1.33
2022-08-17T13:45:50.276Z,1.60
2022-08-17T13:48:28.433Z,1.40
2022-08-17T13:50:55.076Z,1.52
2022-08-17T13:53:51.121Z,1.23
2022-08-17T13:56:47.687Z,1.42
2022-08-17T13:59:53.856Z,1.40
2022-08-17T14:02:14.453Z,1.25
2022-08-17T14:04:43.992Z,1.25
2022-08-17T14:07:11.441Z,1.30
2022-08-17T14:09:51.210Z,1.52
2022-08-17T14:12:24.891Z,1.20
2022-08-17T14:14:54.864Z,1.23
2022-08-17T14:17:23.161Z,1.33
2022-08-17T14:19:51.124Z,1.40
2022-08-17T14:22:31.841Z,1.40
2022-08-17T14:25:01.648Z,1.20
2022-08-17T14:27:31.781Z,1.70
2022-08-17T14:29:58.594Z,1.40
2022-08-17T14:32:29.960Z,1.13
2022-08-17T14:34:58.094Z,1.85
2022-08-17T14:37:27.855Z,1.40
2022-08-17T14:39:59.986Z,1.42
2022-08-17T14:42:30.805Z,1.35
2022-08-17T14:45:06.042Z,1.60
2022-08-17T14:47:34.576Z,1.30
2022-08-17T14:50:02.110Z,1.50
2022-08-17T14:52:29.326Z,1.58
2022-08-17T14:54:56.880Z,1.60
2022-08-17T14:57:33.297Z,1.90
2022-08-17T15:00:02.029Z,1.45
2022-08-17T15:02:30.700Z,1.65
2022-08-17T15:05:06.083Z,1.20
2022-08-17T15:07:32.935Z,1.67
2022-08-17T15:10:01.398Z,1.80
2022-08-17T15:12:33.386Z,1.65
2022-08-17T15:15:04.917Z,1.60
2022-08-17T15:17:44.239Z,1.65
2022-08-17T15:20:17.695Z,1.65
2022-08-17T15:22:46.924Z,1.42
2022-08-17T15:25:14.430Z,1.80
2022-08-17T15:27:41.983Z,2.33
2022-08-17T15:30:10.109Z,1.50
2022-08-17T15:32:39.629Z,1.90
2022-08-17T15:35:08.808Z,1.40
2022-08-17T15:37:36.312Z,1.50
2022-08-17T15:40:05.270Z,1.60
2022-08-17T15:42:32.886Z,1.60
2022-08-17T15:45:10.867Z,1.35
2022-08-17T15:47:38.038Z,1.63
2022-08-17T15:50:07.812Z,1.85
2022-08-17T15:52:39.968Z,1.75
2022-08-17T15:55:13.870Z,1.58
2022-08-17T15:57:41.142Z,1.95
2022-08-17T16:00:09.578Z,2.03
2022-08-17T16:03:46.438Z,1.70
2022-08-17T16:05:27.142Z,1.80
2022-08-17T16:07:55.795Z,1.55
2022-08-17T16:10:23.506Z,1.80
2022-08-17T16:13:02.462Z,1.90
2022-08-17T16:15:31.140Z,1.92
2022-08-17T16:17:57.951Z,1.98
2022-08-17T16:20:26.037Z,1.50
2022-08-17T16:22:54.265Z,1.80
2022-08-17T16:25:50.423Z,2.30
2022-08-17T16:28:16.630Z,2.03
2022-08-17T16:30:43.557Z,2.70
2022-08-17T16:33:11.542Z,2.10
2022-08-17T16:35:38.570Z,1.98
2022-08-17T16:38:05.441Z,1.98
2022-08-17T16:40:36.019Z,1.85
2022-08-17T16:43:04.307Z,2.40
2022-08-17T16:45:36.288Z,2.03
2022-08-17T16:48:03.604Z,2.15
2022-08-17T16:50:31.818Z,2.20
2022-08-17T16:53:17.023Z,2.40
2022-08-17T16:55:45.821Z,2.10
2022-08-17T16:58:13.036Z,2.00
2022-08-17T17:00:42.281Z,1.73
2022-08-17T17:03:20.409Z,1.60
2022-08-17T17:06:18.746Z,1.98
2022-08-17T17:08:57.907Z,1.83
2022-08-17T17:11:33.495Z,2.00
2022-08-17T17:14:06.442Z,2.15
2022-08-17T17:16:52.818Z,1.92
2022-08-17T17:19:27.747Z,1.98
2022-08-17T17:22:15.588Z,1.95
2022-08-17T17:24:51.916Z,2.10
2022-08-17T17:27:40.575Z,2.17
2022-08-17T17:30:14.429Z,2.13
2022-08-17T17:32:51.404Z,1.90
2022-08-17T17:35:35.968Z,1.48
2022-08-17T17:40:45.782Z,1.50
2022-08-17T17:43:37.669Z,1.50
2022-08-17T17:46:29.243Z,1.60
2022-08-17T17:49:00.345Z,2.25
2022-08-17T17:52:07.777Z,1.80
2022-08-17T17:54:51.058Z,1.85
2022-08-17T17:57:28.662Z,1.40
2022-08-17T18:00:26.428Z,2.25
2022-08-17T18:03:42.434Z,1.60
2022-08-17T18:06:27.036Z,1.60
2022-08-17T18:09:21.632Z,1.88
2022-08-17T18:12:05.362Z,1.73
2022-08-17T18:15:21.558Z,1.38
2022-08-17T18:18:22.714Z,1.80
2022-08-17T18:20:56.287Z,1.88
2022-08-17T18:23:28.018Z,1.90
2022-08-17T18:25:57.152Z,1.90
2022-08-17T18:28:30.826Z,1.55
2022-08-17T18:31:18.897Z,1.77
2022-08-17T18:33:53.290Z,1.90
2022-08-17T18:36:31.620Z,2.08
2022-08-17T18:39:23.592Z,1.50
2022-08-17T18:41:54.513Z,1.95
2022-08-17T18:44:35.739Z,1.95
2022-08-17T18:47:23.178Z,2.17
2022-08-17T18:49:58.159Z,1.85
2022-08-17T18:52:34.348Z,2.03
2022-08-17T18:55:12.740Z,1.70
2022-08-17T18:57:52.462Z,1.75
2022-08-17T19:00:42.907Z,1.88
2022-08-17T19:03:15.797Z,1.52
2022-08-17T19:05:55.158Z,1.73
2022-08-17T19:08:29.424Z,2.05
2022-08-17T19:13:55.337Z,1.77
2022-08-17T19:16:38.004Z,2.33
2022-08-17T19:19:22.100Z,2.10
2022-08-17T19:22:08.106Z,2.15
2022-08-17T19:24:35.548Z,2.10
2022-08-17T19:27:21.671Z,2.17
2022-08-17T19:30:08.505Z,2.20
2022-08-17T19:32:36.045Z,2.38
2022-08-17T19:35:05.009Z,2.17
2022-08-17T19:38:12.994Z,2.28
2022-08-17T19:41:09.663Z,2.55
2022-08-17T19:44:00.774Z,2.30
2022-08-17T19:46:50.441Z,2.17
2022-08-17T19:49:49.645Z,2.17
2022-08-17T19:52:29.080Z,2.70
2022-08-17T19:55:07.120Z,2.33
2022-08-17T19:58:20.360Z,2.78
2022-08-17T20:00:51.411Z,3.10
2022-08-17T20:03:34.030Z,2.70
2022-08-17T20:06:13.798Z,2.50
2022-08-17T20:09:03.940Z,2.28
2022-08-17T20:11:46.939Z,2.83
2022-08-17T20:14:19.683Z,2.50
2022-08-17T20:16:46.922Z,3.00
2022-08-17T20:19:51.969Z,2.70
2022-08-17T20:22:53.064Z,2.47
2022-08-17T20:25:46.002Z,2.58
2022-08-17T20:28:28.691Z,2.47
2022-08-17T20:30:59.255Z,3.20
2022-08-17T20:33:35.221Z,2.58
2022-08-17T20:36:11.207Z,2.65
2022-08-17T20:38:55.467Z,2.75
2022-08-17T20:41:28.958Z,3.25
2022-08-17T20:43:58.862Z,2.33
2022-08-17T20:46:37.861Z,2.50
2022-08-17T20:49:39.148Z,2.85
2022-08-17T20:52:13.333Z,2.55
2022-08-17T20:54:54.492Z,2.50
2022-08-17T20:57:36.241Z,3.25
2022-08-17T21:00:17.082Z,3.40
2022-08-17T21:02:49.496Z,3.15
2022-08-17T21:06:15.335Z,3.35
2022-08-17T21:08:45.882Z,2.75
2022-08-17T21:11:57.080Z,2.90
2022-08-17T21:14:38.015Z,3.13
2022-08-17T21:17:18.718Z,3.05
2022-08-17T21:20:40.160Z,2.50
2022-08-17T21:23:19.452Z,2.45
2022-08-17T21:26:30.211Z,2.97
2022-08-17T21:29:31.447Z,2.80
2022-08-17T21:31:59.681Z,2.33
2022-08-17T21:34:36.021Z,3.10
2022-08-17T21:37:25.254Z,3.08
2022-08-17T21:39:57.503Z,3.10
2022-08-17T21:42:34.604Z,3.17
2022-08-17T21:45:32.423Z,3.20
2022-08-17T21:48:20.602Z,2.85
2022-08-17T21:51:08.883Z,2.67
2022-08-17T21:53:56.577Z,2.75
2022-08-17T21:56:38.064Z,3.15
2022-08-17T21:59:19.315Z,3.58
2022-08-17T22:01:58.467Z,2.50
2022-08-17T22:04:36.837Z,3.17
2022-08-17T22:07:12.452Z,3.28
2022-08-17T22:09:44.871Z,2.90
2022-08-17T22:12:21.314Z,3.28
2022-08-17T22:15:05.753Z,3.50
2022-08-17T22:17:46.600Z,3.08
2022-08-17T22:20:19.538Z,3.00
2022-08-17T22:23:04.728Z,3.13
2022-08-17T22:25:40.543Z,3.30
2022-08-17T22:28:10.368Z,3.08
2022-08-17T22:30:58.540Z,3.10
2022-08-17T22:33:45.318Z,2.80
2022-08-17T22:36:34.329Z,3.20
2022-08-17T22:39:09.861Z,3.25
2022-08-17T22:42:00.871Z,3.53
2022-08-17T22:44:37.596Z,2.92
2022-08-17T22:47:29.327Z,3.40
2022-08-17T22:50:00.641Z,3.47
2022-08-17T22:52:33.965Z,3.53
2022-08-17T22:55:33.323Z,3.90
2022-08-17T22:58:20.649Z,3.10
2022-08-17T23:00:49.187Z,3.33
2022-08-17T23:03:25.855Z,3.13
2022-08-17T23:06:10.349Z,3.65
2022-08-17T23:08:54.561Z,3.75
2022-08-17T23:11:36.629Z,3.67
2022-08-17T23:14:15.944Z,3.88
2022-08-17T23:16:42.835Z,3.20
2022-08-17T23:19:16.776Z,3.42
2022-08-17T23:21:47.377Z,3.25
2022-08-17T23:24:29.325Z,4.07
2022-08-17T23:26:58.037Z,3.75
2022-08-17T23:29:29.132Z,3.55
2022-08-17T23:31:59.672Z,4.15
2022-08-17T23:34:27.945Z,4.38
2022-08-17T23:36:55.474Z,4.03
2022-08-17T23:39:24.732Z,3.63
2022-08-17T23:41:57.866Z,4.53
2022-08-17T23:44:25.495Z,4.28
2022-08-17T23:46:53.755Z,3.88
2022-08-17T23:49:20.695Z,4.25
2022-08-17T23:51:48.761Z,3.80
2022-08-17T23:54:33.551Z,3.88
2022-08-17T23:57:01.996Z,4.00
2022-08-17T23:59:29.226Z,4.45
